sensor_id;sensor_type;location;lat;lon;timestamp;P1;durP1;ratioP1;P2;durP2;ratioP2
59974;SDS011;62136;-35.664;-63.766;2023-04-24T00:01:37;6.70;;;3.90;;
59974;SDS011;62136;-35.664;-63.766;2023-04-24T00:04:05;7.07;;;3.60;;
59974;SDS011;62136;-35.664;-63.766;2023-04-24T00:06:36;7.78;;;4.03;;
59974;SDS011;62136;-35.664;-63.766;2023-04-24T00:09:04;7.10;;;3.60;;
59974;SDS011;62136;-35.664;-63.766;2023-04-24T00:11:31;4.72;;;3.83;;
59974;SDS011;62136;-35.664;-63.766;2023-04-24T00:13:58;9.05;;;3.90;;
59974;SDS011;62136;-35.664;-63.766;2023-04-24T00:16:25;7.78;;;3.88;;
59974;SDS011;62136;-35.664;-63.766;2023-04-24T00:18:52;7.60;;;3.70;;
59974;SDS011;62136;-35.664;-63.766;2023-04-24T00:21:19;5.57;;;4.32;;
59974;SDS011;62136;-35.664;-63.766;2023-04-24T00:23:47;6.10;;;3.50;;
59974;SDS011;62136;-35.664;-63.766;2023-04-24T00:26:14;6.40;;;3.72;;
59974;SDS011;62136;-35.664;-63.766;2023-04-24T00:28:41;5.32;;;3.70;;
59974;SDS011;62136;-35.664;-63.766;2023-04-24T00:31:08;5.13;;;3.75;;
59974;SDS011;62136;-35.664;-63.766;2023-04-24T00:33:35;7.60;;;3.60;;
59974;SDS011;62136;-35.664;-63.766;2023-04-24T00:36:02;5.88;;;3.78;;
59974;SDS011;62136;-35.664;-63.766;2023-04-24T00:38:29;5.95;;;3.55;;
59974;SDS011;62136;-35.664;-63.766;2023-04-24T00:40:56;8.52;;;4.40;;
59974;SDS011;62136;-35.664;-63.766;2023-04-24T00:43:23;6.22;;;3.53;;
59974;SDS011;62136;-35.664;-63.766;2023-04-24T00:45:51;6.80;;;4.00;;
59974;SDS011;62136;-35.664;-63.766;2023-04-24T00:48:18;6.18;;;3.88;;
59974;SDS011;62136;-35.664;-63.766;2023-04-24T00:50:46;7.28;;;3.88;;
59974;SDS011;62136;-35.664;-63.766;2023-04-24T00:53:13;8.43;;;3.78;;
59974;SDS011;62136;-35.664;-63.766;2023-04-24T00:55:40;7.32;;;3.80;;
59974;SDS011;62136;-35.664;-63.766;2023-04-24T00:58:07;7.45;;;4.40;;
59974;SDS011;62136;-35.664;-63.766;2023-04-24T01:00:35;6.35;;;3.92;;
59974;SDS011;62136;-35.664;-63.766;2023-04-24T01:03:02;4.97;;;4.25;;
59974;SDS011;62136;-35.664;-63.766;2023-04-24T01:05:31;6.18;;;3.67;;
59974;SDS011;62136;-35.664;-63.766;2023-04-24T01:07:59;6.78;;;4.22;;
59974;SDS011;62136;-35.664;-63.766;2023-04-24T01:10:27;8.27;;;4.00;;
59974;SDS011;62136;-35.664;-63.766;2023-04-24T01:12:57;7.10;;;4.30;;
59974;SDS011;62136;-35.664;-63.766;2023-04-24T01:15:25;9.65;;;4.20;;
59974;SDS011;62136;-35.664;-63.766;2023-04-24T01:17:55;6.95;;;4.07;;
59974;SDS011;62136;-35.664;-63.766;2023-04-24T01:20:25;9.07;;;4.47;;
59974;SDS011;62136;-35.664;-63.766;2023-04-24T01:22:55;7.53;;;4.00;;
59974;SDS011;62136;-35.664;-63.766;2023-04-24T01:25:23;4.85;;;3.65;;
59974;SDS011;62136;-35.664;-63.766;2023-04-24T01:27:50;6.72;;;3.88;;
59974;SDS011;62136;-35.664;-63.766;2023-04-24T01:30:18;6.07;;;3.53;;
59974;SDS011;62136;-35.664;-63.766;2023-04-24T01:32:45;7.15;;;4.00;;
59974;SDS011;62136;-35.664;-63.766;2023-04-24T01:35:12;7.47;;;4.53;;
59974;SDS011;62136;-35.664;-63.766;2023-04-24T01:37:39;5.80;;;3.90;;
59974;SDS011;62136;-35.664;-63.766;2023-04-24T01:40:07;6.40;;;4.57;;
59974;SDS011;62136;-35.664;-63.766;2023-04-24T01:42:34;6.47;;;3.83;;
59974;SDS011;62136;-35.664;-63.766;2023-04-24T01:45:02;6.68;;;3.67;;
59974;SDS011;62136;-35.664;-63.766;2023-04-24T01:47:31;6.35;;;4.07;;
59974;SDS011;62136;-35.664;-63.766;2023-04-24T01:49:59;5.72;;;4.10;;
59974;SDS011;62136;-35.664;-63.766;2023-04-24T01:52:26;8.90;;;4.60;;
59974;SDS011;62136;-35.664;-63.766;2023-04-24T01:54:56;6.88;;;3.85;;
59974;SDS011;62136;-35.664;-63.766;2023-04-24T01:57:26;4.63;;;3.60;;
59974;SDS011;62136;-35.664;-63.766;2023-04-24T01:59:55;5.28;;;3.92;;
59974;SDS011;62136;-35.664;-63.766;2023-04-24T02:02:23;5.70;;;3.97;;
59974;SDS011;62136;-35.664;-63.766;2023-04-24T02:04:53;7.57;;;3.63;;
59974;SDS011;62136;-35.664;-63.766;2023-04-24T02:07:20;9.70;;;4.68;;
59974;SDS011;62136;-35.664;-63.766;2023-04-24T02:09:47;5.40;;;3.72;;
59974;SDS011;62136;-35.664;-63.766;2023-04-24T02:12:15;6.70;;;3.58;;
59974;SDS011;62136;-35.664;-63.766;2023-04-24T02:14:43;6.32;;;4.10;;
59974;SDS011;62136;-35.664;-63.766;2023-04-24T02:17:10;6.07;;;4.10;;
59974;SDS011;62136;-35.664;-63.766;2023-04-24T02:19:38;7.85;;;3.92;;
59974;SDS011;62136;-35.664;-63.766;2023-04-24T02:22:05;6.32;;;3.60;;
59974;SDS011;62136;-35.664;-63.766;2023-04-24T02:24:32;6.90;;;3.53;;
59974;SDS011;62136;-35.664;-63.766;2023-04-24T02:26:59;6.22;;;4.03;;
59974;SDS011;62136;-35.664;-63.766;2023-04-24T02:29:27;6.68;;;3.95;;
59974;SDS011;62136;-35.664;-63.766;2023-04-24T02:31:57;8.05;;;3.97;;
59974;SDS011;62136;-35.664;-63.766;2023-04-24T02:34:24;7.93;;;4.15;;
59974;SDS011;62136;-35.664;-63.766;2023-04-24T02:36:51;7.38;;;4.43;;
59974;SDS011;62136;-35.664;-63.766;2023-04-24T02:39:19;7.22;;;3.95;;
59974;SDS011;62136;-35.664;-63.766;2023-04-24T02:41:46;5.38;;;3.90;;
59974;SDS011;62136;-35.664;-63.766;2023-04-24T02:44:13;7.35;;;4.10;;
59974;SDS011;62136;-35.664;-63.766;2023-04-24T02:46:41;5.88;;;3.80;;
59974;SDS011;62136;-35.664;-63.766;2023-04-24T02:49:07;4.55;;;3.45;;
59974;SDS011;62136;-35.664;-63.766;2023-04-24T02:51:34;5.78;;;3.90;;
59974;SDS011;62136;-35.664;-63.766;2023-04-24T02:54:06;5.32;;;3.53;;
59974;SDS011;62136;-35.664;-63.766;2023-04-24T02:56:35;7.82;;;3.88;;
59974;SDS011;62136;-35.664;-63.766;2023-04-24T02:59:03;5.90;;;3.35;;
59974;SDS011;62136;-35.664;-63.766;2023-04-24T03:01:30;8.68;;;3.60;;
59974;SDS011;62136;-35.664;-63.766;2023-04-24T03:03:57;5.65;;;3.92;;
59974;SDS011;62136;-35.664;-63.766;2023-04-24T03:06:24;5.18;;;3.83;;
59974;SDS011;62136;-35.664;-63.766;2023-04-24T03:08:52;7.13;;;3.95;;
59974;SDS011;62136;-35.664;-63.766;2023-04-24T03:11:20;5.43;;;3.38;;
59974;SDS011;62136;-35.664;-63.766;2023-04-24T03:13:47;5.38;;;4.00;;
59974;SDS011;62136;-35.664;-63.766;2023-04-24T03:16:14;6.75;;;3.50;;
59974;SDS011;62136;-35.664;-63.766;2023-04-24T03:18:41;5.85;;;3.30;;
59974;SDS011;62136;-35.664;-63.766;2023-04-24T03:21:08;6.55;;;3.60;;
59974;SDS011;62136;-35.664;-63.766;2023-04-24T03:23:35;6.78;;;4.00;;
59974;SDS011;62136;-35.664;-63.766;2023-04-24T03:26:02;8.40;;;3.67;;
59974;SDS011;62136;-35.664;-63.766;2023-04-24T03:28:29;5.43;;;3.83;;
59974;SDS011;62136;-35.664;-63.766;2023-04-24T03:30:56;7.85;;;3.78;;
59974;SDS011;62136;-35.664;-63.766;2023-04-24T03:33:23;8.15;;;4.07;;
59974;SDS011;62136;-35.664;-63.766;2023-04-24T03:35:50;4.85;;;3.08;;
59974;SDS011;62136;-35.664;-63.766;2023-04-24T03:38:18;5.57;;;3.70;;
59974;SDS011;62136;-35.664;-63.766;2023-04-24T03:40:45;6.72;;;3.65;;
59974;SDS011;62136;-35.664;-63.766;2023-04-24T03:43:12;7.05;;;3.30;;
59974;SDS011;62136;-35.664;-63.766;2023-04-24T03:45:39;5.20;;;4.22;;
59974;SDS011;62136;-35.664;-63.766;2023-04-24T03:48:06;5.35;;;3.40;;
59974;SDS011;62136;-35.664;-63.766;2023-04-24T03:50:33;5.28;;;3.42;;
59974;SDS011;62136;-35.664;-63.766;2023-04-24T03:53:00;6.00;;;3.60;;
59974;SDS011;62136;-35.664;-63.766;2023-04-24T03:55:27;4.78;;;3.08;;
59974;SDS011;62136;-35.664;-63.766;2023-04-24T03:58:04;7.30;;;3.50;;
59974;SDS011;62136;-35.664;-63.766;2023-04-24T04:00:31;5.28;;;3.63;;
59974;SDS011;62136;-35.664;-63.766;2023-04-24T04:02:58;3.85;;;3.28;;
59974;SDS011;62136;-35.664;-63.766;2023-04-24T04:05:25;6.35;;;3.65;;
59974;SDS011;62136;-35.664;-63.766;2023-04-24T04:07:52;7.03;;;4.05;;
59974;SDS011;62136;-35.664;-63.766;2023-04-24T04:10:19;5.45;;;3.80;;
59974;SDS011;62136;-35.664;-63.766;2023-04-24T04:12:46;5.38;;;3.55;;
59974;SDS011;62136;-35.664;-63.766;2023-04-24T04:15:13;6.60;;;3.45;;
59974;SDS011;62136;-35.664;-63.766;2023-04-24T04:17:41;6.38;;;3.35;;
59974;SDS011;62136;-35.664;-63.766;2023-04-24T04:20:08;5.18;;;3.10;;
59974;SDS011;62136;-35.664;-63.766;2023-04-24T04:22:36;6.57;;;3.10;;
59974;SDS011;62136;-35.664;-63.766;2023-04-24T04:25:03;4.95;;;3.25;;
59974;SDS011;62136;-35.664;-63.766;2023-04-24T04:27:32;4.90;;;3.00;;
59974;SDS011;62136;-35.664;-63.766;2023-04-24T04:29:59;4.35;;;2.88;;
59974;SDS011;62136;-35.664;-63.766;2023-04-24T04:32:31;5.65;;;3.22;;
59974;SDS011;62136;-35.664;-63.766;2023-04-24T04:35:01;6.70;;;3.47;;
59974;SDS011;62136;-35.664;-63.766;2023-04-24T04:37:29;5.10;;;3.35;;
59974;SDS011;62136;-35.664;-63.766;2023-04-24T04:39:57;6.38;;;3.58;;
59974;SDS011;62136;-35.664;-63.766;2023-04-24T04:42:24;5.70;;;3.55;;
59974;SDS011;62136;-35.664;-63.766;2023-04-24T04:44:54;6.10;;;3.45;;
59974;SDS011;62136;-35.664;-63.766;2023-04-24T04:47:22;6.65;;;3.58;;
59974;SDS011;62136;-35.664;-63.766;2023-04-24T04:49:50;4.85;;;3.47;;
59974;SDS011;62136;-35.664;-63.766;2023-04-24T04:52:20;4.15;;;3.08;;
59974;SDS011;62136;-35.664;-63.766;2023-04-24T04:54:50;4.20;;;3.15;;
59974;SDS011;62136;-35.664;-63.766;2023-04-24T04:57:17;4.55;;;2.90;;
59974;SDS011;62136;-35.664;-63.766;2023-04-24T04:59:44;4.15;;;2.78;;
59974;SDS011;62136;-35.664;-63.766;2023-04-24T05:02:11;5.95;;;3.28;;
59974;SDS011;62136;-35.664;-63.766;2023-04-24T05:04:38;4.40;;;3.10;;
59974;SDS011;62136;-35.664;-63.766;2023-04-24T05:07:05;4.75;;;3.00;;
59974;SDS011;62136;-35.664;-63.766;2023-04-24T05:09:32;4.05;;;3.13;;
59974;SDS011;62136;-35.664;-63.766;2023-04-24T05:11:59;4.18;;;2.88;;
59974;SDS011;62136;-35.664;-63.766;2023-04-24T05:14:27;5.38;;;2.65;;
59974;SDS011;62136;-35.664;-63.766;2023-04-24T05:16:54;4.82;;;3.33;;
59974;SDS011;62136;-35.664;-63.766;2023-04-24T05:19:21;5.82;;;3.42;;
59974;SDS011;62136;-35.664;-63.766;2023-04-24T05:21:48;5.35;;;2.83;;
59974;SDS011;62136;-35.664;-63.766;2023-04-24T05:24:15;7.78;;;2.63;;
59974;SDS011;62136;-35.664;-63.766;2023-04-24T05:26:42;4.45;;;3.00;;
59974;SDS011;62136;-35.664;-63.766;2023-04-24T05:29:09;3.63;;;3.20;;
59974;SDS011;62136;-35.664;-63.766;2023-04-24T05:31:37;3.70;;;2.72;;
59974;SDS011;62136;-35.664;-63.766;2023-04-24T05:34:04;5.30;;;2.83;;
59974;SDS011;62136;-35.664;-63.766;2023-04-24T05:36:31;4.50;;;2.95;;
59974;SDS011;62136;-35.664;-63.766;2023-04-24T05:38:58;4.15;;;2.60;;
59974;SDS011;62136;-35.664;-63.766;2023-04-24T05:41:25;3.60;;;2.63;;
59974;SDS011;62136;-35.664;-63.766;2023-04-24T05:43:52;3.97;;;2.85;;
59974;SDS011;62136;-35.664;-63.766;2023-04-24T05:46:19;5.40;;;2.83;;
59974;SDS011;62136;-35.664;-63.766;2023-04-24T05:48:46;4.47;;;2.75;;
59974;SDS011;62136;-35.664;-63.766;2023-04-24T05:51:13;5.20;;;3.10;;
59974;SDS011;62136;-35.664;-63.766;2023-04-24T05:53:40;4.85;;;2.53;;
59974;SDS011;62136;-35.664;-63.766;2023-04-24T05:56:07;4.88;;;3.00;;
59974;SDS011;62136;-35.664;-63.766;2023-04-24T05:58:34;3.55;;;2.42;;
59974;SDS011;62136;-35.664;-63.766;2023-04-24T06:01:02;4.03;;;2.83;;
59974;SDS011;62136;-35.664;-63.766;2023-04-24T06:03:29;4.78;;;2.78;;
59974;SDS011;62136;-35.664;-63.766;2023-04-24T06:05:57;4.50;;;2.80;;
59974;SDS011;62136;-35.664;-63.766;2023-04-24T06:08:24;5.10;;;3.00;;
59974;SDS011;62136;-35.664;-63.766;2023-04-24T06:10:51;4.38;;;2.67;;
59974;SDS011;62136;-35.664;-63.766;2023-04-24T06:13:18;4.68;;;2.78;;
59974;SDS011;62136;-35.664;-63.766;2023-04-24T06:15:45;5.53;;;3.00;;
59974;SDS011;62136;-35.664;-63.766;2023-04-24T06:18:12;3.63;;;2.60;;
59974;SDS011;62136;-35.664;-63.766;2023-04-24T06:20:39;4.57;;;3.08;;
59974;SDS011;62136;-35.664;-63.766;2023-04-24T06:23:06;3.30;;;2.78;;
59974;SDS011;62136;-35.664;-63.766;2023-04-24T06:25:33;3.22;;;2.45;;
59974;SDS011;62136;-35.664;-63.766;2023-04-24T06:28:00;3.40;;;2.60;;
59974;SDS011;62136;-35.664;-63.766;2023-04-24T06:30:28;4.22;;;2.65;;
59974;SDS011;62136;-35.664;-63.766;2023-04-24T06:32:55;4.38;;;2.88;;
59974;SDS011;62136;-35.664;-63.766;2023-04-24T06:35:22;3.53;;;2.40;;
59974;SDS011;62136;-35.664;-63.766;2023-04-24T06:37:49;4.28;;;2.55;;
59974;SDS011;62136;-35.664;-63.766;2023-04-24T06:40:16;4.57;;;2.78;;
59974;SDS011;62136;-35.664;-63.766;2023-04-24T06:42:46;5.22;;;2.70;;
59974;SDS011;62136;-35.664;-63.766;2023-04-24T06:45:13;4.28;;;2.70;;
59974;SDS011;62136;-35.664;-63.766;2023-04-24T06:47:40;3.30;;;2.60;;
59974;SDS011;62136;-35.664;-63.766;2023-04-24T06:50:07;3.42;;;2.40;;
59974;SDS011;62136;-35.664;-63.766;2023-04-24T06:52:35;4.20;;;2.78;;
59974;SDS011;62136;-35.664;-63.766;2023-04-24T06:55:02;3.90;;;2.75;;
59974;SDS011;62136;-35.664;-63.766;2023-04-24T06:57:29;3.50;;;2.50;;
59974;SDS011;62136;-35.664;-63.766;2023-04-24T06:59:56;4.35;;;2.53;;
59974;SDS011;62136;-35.664;-63.766;2023-04-24T07:02:24;3.55;;;2.35;;
59974;SDS011;62136;-35.664;-63.766;2023-04-24T07:04:51;3.75;;;3.00;;
59974;SDS011;62136;-35.664;-63.766;2023-04-24T07:07:18;3.53;;;2.72;;
59974;SDS011;62136;-35.664;-63.766;2023-04-24T07:09:46;3.40;;;2.50;;
59974;SDS011;62136;-35.664;-63.766;2023-04-24T07:12:13;3.38;;;2.33;;
59974;SDS011;62136;-35.664;-63.766;2023-04-24T07:14:42;5.45;;;2.95;;
59974;SDS011;62136;-35.664;-63.766;2023-04-24T07:17:09;4.15;;;2.30;;
59974;SDS011;62136;-35.664;-63.766;2023-04-24T07:19:38;3.65;;;2.97;;
59974;SDS011;62136;-35.664;-63.766;2023-04-24T07:22:05;3.30;;;2.45;;
59974;SDS011;62136;-35.664;-63.766;2023-04-24T07:24:32;3.95;;;2.70;;
59974;SDS011;62136;-35.664;-63.766;2023-04-24T07:26:59;3.33;;;2.35;;
59974;SDS011;62136;-35.664;-63.766;2023-04-24T07:29:32;2.60;;;2.40;;
59974;SDS011;62136;-35.664;-63.766;2023-04-24T07:31:59;4.05;;;2.60;;
59974;SDS011;62136;-35.664;-63.766;2023-04-24T07:34:26;3.47;;;2.53;;
59974;SDS011;62136;-35.664;-63.766;2023-04-24T07:36:53;3.50;;;2.50;;
59974;SDS011;62136;-35.664;-63.766;2023-04-24T07:39:20;2.88;;;2.30;;
59974;SDS011;62136;-35.664;-63.766;2023-04-24T07:41:47;3.25;;;2.40;;
59974;SDS011;62136;-35.664;-63.766;2023-04-24T07:44:14;2.95;;;2.35;;
59974;SDS011;62136;-35.664;-63.766;2023-04-24T07:46:41;3.30;;;2.30;;
59974;SDS011;62136;-35.664;-63.766;2023-04-24T07:49:08;2.85;;;2.35;;
59974;SDS011;62136;-35.664;-63.766;2023-04-24T07:51:36;3.72;;;2.58;;
59974;SDS011;62136;-35.664;-63.766;2023-04-24T07:54:06;2.63;;;2.42;;
59974;SDS011;62136;-35.664;-63.766;2023-04-24T07:56:33;3.42;;;2.30;;
59974;SDS011;62136;-35.664;-63.766;2023-04-24T07:59:04;3.05;;;2.17;;
59974;SDS011;62136;-35.664;-63.766;2023-04-24T08:01:31;2.55;;;2.35;;
59974;SDS011;62136;-35.664;-63.766;2023-04-24T08:03:58;2.85;;;2.25;;
59974;SDS011;62136;-35.664;-63.766;2023-04-24T08:06:25;3.47;;;2.90;;
59974;SDS011;62136;-35.664;-63.766;2023-04-24T08:08:56;3.45;;;2.17;;
59974;SDS011;62136;-35.664;-63.766;2023-04-24T08:11:23;3.50;;;2.50;;
59974;SDS011;62136;-35.664;-63.766;2023-04-24T08:13:51;4.22;;;2.50;;
59974;SDS011;62136;-35.664;-63.766;2023-04-24T08:16:19;3.28;;;2.38;;
59974;SDS011;62136;-35.664;-63.766;2023-04-24T08:18:46;4.72;;;2.58;;
59974;SDS011;62136;-35.664;-63.766;2023-04-24T08:21:13;3.42;;;2.10;;
59974;SDS011;62136;-35.664;-63.766;2023-04-24T08:23:42;3.83;;;2.40;;
59974;SDS011;62136;-35.664;-63.766;2023-04-24T08:26:10;3.47;;;2.47;;
59974;SDS011;62136;-35.664;-63.766;2023-04-24T08:28:38;2.97;;;2.17;;
59974;SDS011;62136;-35.664;-63.766;2023-04-24T08:31:05;3.35;;;2.30;;
59974;SDS011;62136;-35.664;-63.766;2023-04-24T08:33:32;2.33;;;2.10;;
59974;SDS011;62136;-35.664;-63.766;2023-04-24T08:36:05;4.70;;;2.30;;
59974;SDS011;62136;-35.664;-63.766;2023-04-24T08:38:33;2.53;;;2.22;;
59974;SDS011;62136;-35.664;-63.766;2023-04-24T08:41:00;4.93;;;2.47;;
59974;SDS011;62136;-35.664;-63.766;2023-04-24T08:43:28;3.42;;;2.42;;
59974;SDS011;62136;-35.664;-63.766;2023-04-24T08:45:56;3.30;;;2.17;;
59974;SDS011;62136;-35.664;-63.766;2023-04-24T08:48:24;4.00;;;2.45;;
59974;SDS011;62136;-35.664;-63.766;2023-04-24T08:50:52;3.25;;;2.08;;
59974;SDS011;62136;-35.664;-63.766;2023-04-24T08:53:20;4.07;;;2.63;;
59974;SDS011;62136;-35.664;-63.766;2023-04-24T08:55:47;3.17;;;2.22;;
59974;SDS011;62136;-35.664;-63.766;2023-04-24T09:00:41;2.45;;;1.90;;
59974;SDS011;62136;-35.664;-63.766;2023-04-24T09:03:13;3.28;;;2.35;;
59974;SDS011;62136;-35.664;-63.766;2023-04-24T09:05:45;3.97;;;2.42;;
59974;SDS011;62136;-35.664;-63.766;2023-04-24T09:08:15;3.97;;;2.50;;
59974;SDS011;62136;-35.664;-63.766;2023-04-24T09:10:43;2.92;;;2.15;;
59974;SDS011;62136;-35.664;-63.766;2023-04-24T09:13:11;2.70;;;2.22;;
59974;SDS011;62136;-35.664;-63.766;2023-04-24T09:15:39;4.53;;;2.55;;
59974;SDS011;62136;-35.664;-63.766;2023-04-24T09:18:06;4.55;;;2.33;;
59974;SDS011;62136;-35.664;-63.766;2023-04-24T09:20:33;3.30;;;2.20;;
59974;SDS011;62136;-35.664;-63.766;2023-04-24T09:23:01;3.30;;;2.30;;
59974;SDS011;62136;-35.664;-63.766;2023-04-24T09:25:32;3.90;;;2.50;;
59974;SDS011;62136;-35.664;-63.766;2023-04-24T09:28:01;3.53;;;2.35;;
59974;SDS011;62136;-35.664;-63.766;2023-04-24T09:30:29;3.78;;;2.30;;
59974;SDS011;62136;-35.664;-63.766;2023-04-24T09:33:10;3.08;;;2.50;;
59974;SDS011;62136;-35.664;-63.766;2023-04-24T09:35:40;3.90;;;2.20;;
59974;SDS011;62136;-35.664;-63.766;2023-04-24T09:38:08;3.42;;;2.35;;
59974;SDS011;62136;-35.664;-63.766;2023-04-24T09:40:36;3.42;;;2.15;;
59974;SDS011;62136;-35.664;-63.766;2023-04-24T09:43:03;3.95;;;2.20;;
59974;SDS011;62136;-35.664;-63.766;2023-04-24T09:45:39;3.58;;;2.15;;
59974;SDS011;62136;-35.664;-63.766;2023-04-24T09:48:09;3.05;;;1.92;;
59974;SDS011;62136;-35.664;-63.766;2023-04-24T09:50:36;2.38;;;2.00;;
59974;SDS011;62136;-35.664;-63.766;2023-04-24T09:53:04;3.08;;;2.20;;
59974;SDS011;62136;-35.664;-63.766;2023-04-24T09:55:39;2.42;;;2.10;;
59974;SDS011;62136;-35.664;-63.766;2023-04-24T09:58:15;2.28;;;2.05;;
59974;SDS011;62136;-35.664;-63.766;2023-04-24T10:00:43;4.43;;;2.33;;
59974;SDS011;62136;-35.664;-63.766;2023-04-24T10:03:12;2.67;;;2.00;;
59974;SDS011;62136;-35.664;-63.766;2023-04-24T10:05:39;2.72;;;1.83;;
59974;SDS011;62136;-35.664;-63.766;2023-04-24T10:08:09;2.15;;;2.00;;
59974;SDS011;62136;-35.664;-63.766;2023-04-24T10:10:40;2.50;;;1.75;;
59974;SDS011;62136;-35.664;-63.766;2023-04-24T10:13:09;3.58;;;2.08;;
59974;SDS011;62136;-35.664;-63.766;2023-04-24T10:15:37;2.75;;;2.25;;
59974;SDS011;62136;-35.664;-63.766;2023-04-24T10:18:06;3.55;;;2.10;;
59974;SDS011;62136;-35.664;-63.766;2023-04-24T10:20:35;4.25;;;2.08;;
59974;SDS011;62136;-35.664;-63.766;2023-04-24T10:23:04;3.75;;;2.17;;
59974;SDS011;62136;-35.664;-63.766;2023-04-24T10:25:32;3.70;;;2.22;;
59974;SDS011;62136;-35.664;-63.766;2023-04-24T10:28:01;3.58;;;2.33;;
59974;SDS011;62136;-35.664;-63.766;2023-04-24T10:30:30;3.05;;;2.30;;
59974;SDS011;62136;-35.664;-63.766;2023-04-24T10:33:01;2.88;;;2.20;;
59974;SDS011;62136;-35.664;-63.766;2023-04-24T10:35:36;1.63;;;1.52;;
59974;SDS011;62136;-35.664;-63.766;2023-04-24T10:38:07;3.00;;;2.20;;
59974;SDS011;62136;-35.664;-63.766;2023-04-24T10:40:38;2.90;;;2.03;;
59974;SDS011;62136;-35.664;-63.766;2023-04-24T10:43:06;2.75;;;2.10;;
59974;SDS011;62136;-35.664;-63.766;2023-04-24T10:45:37;5.13;;;1.90;;
59974;SDS011;62136;-35.664;-63.766;2023-04-24T10:48:05;4.18;;;2.10;;
59974;SDS011;62136;-35.664;-63.766;2023-04-24T10:53:21;4.60;;;1.95;;
59974;SDS011;62136;-35.664;-63.766;2023-04-24T11:01:30;2.28;;;1.83;;
59974;SDS011;62136;-35.664;-63.766;2023-04-24T11:06:36;3.13;;;2.00;;
59974;SDS011;62136;-35.664;-63.766;2023-04-24T11:09:07;8.65;;;2.60;;
59974;SDS011;62136;-35.664;-63.766;2023-04-24T11:11:36;4.85;;;2.40;;
59974;SDS011;62136;-35.664;-63.766;2023-04-24T11:14:08;6.15;;;2.70;;
59974;SDS011;62136;-35.664;-63.766;2023-04-24T11:21:47;6.55;;;3.15;;
59974;SDS011;62136;-35.664;-63.766;2023-04-24T11:26:54;4.13;;;2.78;;
59974;SDS011;62136;-35.664;-63.766;2023-04-24T11:29:37;6.35;;;3.22;;
59974;SDS011;62136;-35.664;-63.766;2023-04-24T11:32:16;5.28;;;2.78;;
59974;SDS011;62136;-35.664;-63.766;2023-04-24T11:37:28;6.85;;;4.00;;
59974;SDS011;62136;-35.664;-63.766;2023-04-24T11:40:00;8.32;;;3.50;;
59974;SDS011;62136;-35.664;-63.766;2023-04-24T11:42:27;8.07;;;4.03;;
59974;SDS011;62136;-35.664;-63.766;2023-04-24T11:44:59;10.20;;;4.47;;
59974;SDS011;62136;-35.664;-63.766;2023-04-24T11:47:27;9.90;;;4.30;;
59974;SDS011;62136;-35.664;-63.766;2023-04-24T11:49:55;12.57;;;4.90;;
59974;SDS011;62136;-35.664;-63.766;2023-04-24T11:52:27;11.38;;;4.60;;
59974;SDS011;62136;-35.664;-63.766;2023-04-24T11:54:55;12.73;;;4.85;;
59974;SDS011;62136;-35.664;-63.766;2023-04-24T11:57:23;16.85;;;5.20;;
59974;SDS011;62136;-35.664;-63.766;2023-04-24T11:59:59;15.82;;;5.38;;
59974;SDS011;62136;-35.664;-63.766;2023-04-24T12:02:27;11.60;;;4.88;;
59974;SDS011;62136;-35.664;-63.766;2023-04-24T12:04:55;9.57;;;5.13;;
59974;SDS011;62136;-35.664;-63.766;2023-04-24T12:07:22;14.85;;;5.80;;
59974;SDS011;62136;-35.664;-63.766;2023-04-24T12:09:59;11.85;;;5.20;;
59974;SDS011;62136;-35.664;-63.766;2023-04-24T12:12:26;13.75;;;5.07;;
59974;SDS011;62136;-35.664;-63.766;2023-04-24T12:14:55;13.40;;;5.35;;
59974;SDS011;62136;-35.664;-63.766;2023-04-24T12:17:27;9.73;;;4.43;;
59974;SDS011;62136;-35.664;-63.766;2023-04-24T12:20:03;12.20;;;5.35;;
59974;SDS011;62136;-35.664;-63.766;2023-04-24T12:22:43;14.60;;;5.07;;
59974;SDS011;62136;-35.664;-63.766;2023-04-24T12:25:19;11.93;;;4.85;;
59974;SDS011;62136;-35.664;-63.766;2023-04-24T12:30:54;11.57;;;5.45;;
59974;SDS011;62136;-35.664;-63.766;2023-04-24T12:33:20;13.27;;;6.45;;
59974;SDS011;62136;-35.664;-63.766;2023-04-24T12:35:48;17.55;;;6.18;;
59974;SDS011;62136;-35.664;-63.766;2023-04-24T12:38:21;13.80;;;5.97;;
59974;SDS011;62136;-35.664;-63.766;2023-04-24T12:41:05;13.52;;;6.63;;
59974;SDS011;62136;-35.664;-63.766;2023-04-24T12:43:53;14.90;;;6.50;;
59974;SDS011;62136;-35.664;-63.766;2023-04-24T12:46:30;14.40;;;6.72;;
59974;SDS011;62136;-35.664;-63.766;2023-04-24T12:48:57;18.20;;;7.13;;
59974;SDS011;62136;-35.664;-63.766;2023-04-24T12:51:25;18.73;;;6.70;;
59974;SDS011;62136;-35.664;-63.766;2023-04-24T12:53:52;16.25;;;6.38;;
59974;SDS011;62136;-35.664;-63.766;2023-04-24T12:56:19;18.40;;;7.10;;
59974;SDS011;62136;-35.664;-63.766;2023-04-24T12:58:46;17.88;;;7.63;;
59974;SDS011;62136;-35.664;-63.766;2023-04-24T13:01:13;18.58;;;7.50;;
59974;SDS011;62136;-35.664;-63.766;2023-04-24T13:03:40;16.27;;;7.40;;
59974;SDS011;62136;-35.664;-63.766;2023-04-24T13:06:08;18.65;;;7.32;;
59974;SDS011;62136;-35.664;-63.766;2023-04-24T13:08:38;13.65;;;7.30;;
59974;SDS011;62136;-35.664;-63.766;2023-04-24T13:11:05;18.05;;;7.93;;
59974;SDS011;62136;-35.664;-63.766;2023-04-24T13:13:34;17.83;;;6.97;;
59974;SDS011;62136;-35.664;-63.766;2023-04-24T13:16:01;15.38;;;7.70;;
59974;SDS011;62136;-35.664;-63.766;2023-04-24T13:18:29;20.20;;;8.50;;
59974;SDS011;62136;-35.664;-63.766;2023-04-24T13:20:57;15.93;;;7.65;;
59974;SDS011;62136;-35.664;-63.766;2023-04-24T13:23:24;17.85;;;8.73;;
59974;SDS011;62136;-35.664;-63.766;2023-04-24T13:25:51;16.40;;;7.18;;
59974;SDS011;62136;-35.664;-63.766;2023-04-24T13:28:20;15.18;;;8.15;;
59974;SDS011;62136;-35.664;-63.766;2023-04-24T13:30:47;17.00;;;6.97;;
59974;SDS011;62136;-35.664;-63.766;2023-04-24T13:33:14;13.48;;;7.00;;
59974;SDS011;62136;-35.664;-63.766;2023-04-24T13:35:42;13.45;;;7.30;;
59974;SDS011;62136;-35.664;-63.766;2023-04-24T13:38:09;15.02;;;7.30;;
59974;SDS011;62136;-35.664;-63.766;2023-04-24T13:40:36;16.40;;;7.50;;
59974;SDS011;62136;-35.664;-63.766;2023-04-24T13:43:03;14.75;;;7.82;;
59974;SDS011;62136;-35.664;-63.766;2023-04-24T13:45:30;15.10;;;7.55;;
59974;SDS011;62136;-35.664;-63.766;2023-04-24T13:47:57;16.52;;;7.22;;
59974;SDS011;62136;-35.664;-63.766;2023-04-24T13:50:24;17.23;;;7.50;;
59974;SDS011;62136;-35.664;-63.766;2023-04-24T13:52:51;18.33;;;7.85;;
59974;SDS011;62136;-35.664;-63.766;2023-04-24T13:55:20;16.17;;;7.75;;
59974;SDS011;62136;-35.664;-63.766;2023-04-24T13:57:48;17.00;;;7.53;;
59974;SDS011;62136;-35.664;-63.766;2023-04-24T14:00:15;14.77;;;7.40;;
59974;SDS011;62136;-35.664;-63.766;2023-04-24T14:02:43;16.48;;;7.43;;
59974;SDS011;62136;-35.664;-63.766;2023-04-24T14:05:10;17.67;;;7.15;;
59974;SDS011;62136;-35.664;-63.766;2023-04-24T14:07:37;18.73;;;7.45;;
59974;SDS011;62136;-35.664;-63.766;2023-04-24T14:10:04;14.13;;;7.07;;
59974;SDS011;62136;-35.664;-63.766;2023-04-24T14:12:31;15.40;;;8.25;;
59974;SDS011;62136;-35.664;-63.766;2023-04-24T14:14:59;21.15;;;8.38;;
59974;SDS011;62136;-35.664;-63.766;2023-04-24T14:17:27;15.68;;;8.30;;
59974;SDS011;62136;-35.664;-63.766;2023-04-24T14:19:54;17.48;;;7.32;;
59974;SDS011;62136;-35.664;-63.766;2023-04-24T14:22:22;18.77;;;7.57;;
59974;SDS011;62136;-35.664;-63.766;2023-04-24T14:24:49;18.05;;;7.70;;
59974;SDS011;62136;-35.664;-63.766;2023-04-24T14:27:16;15.10;;;7.47;;
59974;SDS011;62136;-35.664;-63.766;2023-04-24T14:29:43;14.50;;;7.90;;
59974;SDS011;62136;-35.664;-63.766;2023-04-24T14:32:11;15.05;;;7.25;;
59974;SDS011;62136;-35.664;-63.766;2023-04-24T14:34:40;17.00;;;7.97;;
59974;SDS011;62136;-35.664;-63.766;2023-04-24T14:37:07;17.70;;;8.35;;
59974;SDS011;62136;-35.664;-63.766;2023-04-24T14:39:34;16.70;;;8.05;;